.
WxDataArchive / Data Records for 2016-01-28
2016-01-27 January 2016 2016-01-29

Data Records for Thursday, 28 January 2016

Time	Temp	Chill	HIndex	Humid	Dewpt	 Wind 	HiWind	WindDir	Rain 	Barom
-----	----	-----	------	-----	-----	------	------	-------	-----	-----
00:00	27.0	27.0	27.0	69	18.2	0	4	248	0.00	29.968 
00:05	27.0	27.0	27.0	69	18.2	0	3	248	0.00	29.968 
00:10	27.2	27.2	27.2	68	18.1	0	2	248	0.00	29.968 
00:15	27.2	27.2	27.2	68	18.1	0	3	248	0.00	29.961 
00:20	27.2	27.2	27.2	68	18.1	0	3	248	0.00	29.961 
00:25	27.3	27.3	27.3	68	18.2	1	5	248	0.00	29.961 
00:30	27.3	27.3	27.3	68	18.2	1	4	248	0.00	29.956 
00:35	27.5	27.5	27.5	68	18.3	0	4	248	0.00	29.956 
00:40	27.5	27.5	27.5	68	18.3	1	3	225	0.00	29.956 
00:45	27.5	27.5	27.5	68	18.3	0	2	225	0.00	29.948 
00:50	27.6	27.6	27.6	67	18.1	1	6	248	0.00	29.948 
00:55	27.6	27.6	27.6	67	18.1	1	6	292	0.00	29.948 
01:00	27.6	27.6	27.6	68	18.4	1	4	248	0.00	29.935 
01:05	27.6	27.6	27.6	68	18.4	1	4	248	0.00	29.935 
01:10	27.6	27.6	27.6	68	18.4	0	2	248	0.00	29.935 
01:15	27.6	27.6	27.6	68	18.4	1	4	248	0.00	29.923 
01:20	27.8	27.8	27.8	68	18.6	1	4	248	0.00	29.923 
01:25	27.8	27.8	27.8	68	18.6	1	3	248	0.00	29.923 
01:30	27.8	27.8	27.8	68	18.6	1	3	248	0.00	29.911 
01:35	27.8	27.8	27.8	69	19.0	1	4	248	0.00	29.911 
01:40	27.9	27.9	27.9	68	18.7	1	4	248	0.00	29.911 
01:45	27.9	27.9	27.9	68	18.7	1	3	248	0.00	29.896 
01:50	27.9	27.9	27.9	68	18.7	1	3	248	0.00	29.896 
01:55	28.1	28.1	28.1	69	19.3	1	4	248	0.00	29.896 
02:00	28.1	28.1	28.1	68	18.9	1	4	248	0.00	29.883 
02:05	28.2	28.2	28.2	68	19.0	1	5	248	0.00	29.883 
02:10	28.4	28.4	28.4	68	19.2	1	4	248	0.00	29.883 
02:15	28.4	28.4	28.4	68	19.2	1	6	248	0.00	29.868 
02:20	28.5	28.5	28.5	68	19.3	1	3	248	0.00	29.868 
02:25	28.5	28.5	28.5	68	19.3	1	4	248	0.00	29.868 
02:30	28.7	28.7	28.7	68	19.5	1	5	248	0.00	29.856 
02:35	28.7	28.7	28.7	68	19.5	1	11	248	0.00	29.856 
02:40	28.7	28.7	28.7	68	19.5	1	4	270	0.00	29.856 
02:45	28.8	28.8	28.8	68	19.6	2	5	248	0.00	29.841 
02:50	28.8	28.8	28.8	68	19.6	1	6	248	0.00	29.841 
02:55	29.0	29.0	29.0	68	19.8	0	3	248	0.00	29.841 
03:00	29.0	29.0	29.0	68	19.8	1	4	248	0.00	29.827 
03:05	29.1	29.1	29.1	68	19.9	1	6	248	0.00	29.827 
03:10	29.1	29.1	29.1	68	19.9	1	4	225	0.00	29.827 
03:15	29.3	29.3	29.3	68	20.1	1	5	248	0.00	29.817 
03:20	29.3	29.3	29.3	68	20.1	0	2	248	0.00	29.817 
03:25	29.4	29.4	29.4	68	20.2	1	4	248	0.00	29.817 
03:30	29.4	29.4	29.4	68	20.2	0	3	292	0.00	29.806 
03:35	29.4	29.4	29.4	68	20.2	0	2	292	0.00	29.806 
03:40	29.5	29.5	29.5	68	20.3	1	4	270	0.00	29.806 
03:45	29.7	29.7	29.7	68	20.5	1	6	225	0.00	29.795 
03:50	29.7	29.7	29.7	68	20.5	1	4	248	0.00	29.795 
03:55	29.8	29.8	29.8	68	20.5	1	4	248	0.00	29.795 
04:00	29.8	29.8	29.8	68	20.5	1	4	248	0.00	29.780 
04:05	29.8	29.8	29.8	68	20.5	1	4	248	0.00	29.780 
04:10	29.8	29.8	29.8	69	20.9	0	4	248	0.00	29.780 
04:15	29.8	29.8	29.8	69	20.9	0	2	248	0.00	29.772 
04:20	29.8	29.8	29.8	69	20.9	1	4	248	0.00	29.772 
04:25	30.0	30.0	30.0	69	21.1	1	4	248	0.00	29.772 
04:30	30.0	30.0	30.0	69	21.1	1	5	248	0.00	29.766 
04:35	30.0	30.0	30.0	69	21.1	1	3	248	0.00	29.766 
04:40	30.1	30.1	30.1	69	21.2	0	3	248	0.00	29.766 
04:45	30.1	30.1	30.1	69	21.2	1	3	248	0.00	29.761 
04:50	30.1	30.1	30.1	69	21.2	1	4	248	0.00	29.761 
04:55	30.1	30.1	30.1	69	21.2	1	4	248	0.00	29.761 
05:00	30.1	30.1	30.1	70	21.5	0	3	248	0.00	29.753 
05:05	30.1	30.1	30.1	70	21.5	0	3	248	0.00	29.753 
05:10	30.1	30.1	30.1	70	21.5	1	4	248	0.00	29.753 
05:15	30.1	30.1	30.1	70	21.5	1	3	248	0.00	29.746 
05:20	30.1	30.1	30.1	70	21.5	1	3	248	0.00	29.746 
05:25	30.1	30.1	30.1	70	21.5	1	3	248	0.00	29.746 
05:30	30.1	30.1	30.1	71	21.9	1	3	248	0.00	29.746 
05:35	30.1	30.1	30.1	71	21.9	1	3	248	0.00	29.746 
05:40	30.1	30.1	30.1	71	21.9	1	4	248	0.00	29.746 
05:45	30.1	30.1	30.1	71	21.9	1	5	248	0.00	29.746 
05:50	30.0	30.0	30.0	72	22.1	1	5	248	0.00	29.746 
05:55	30.0	30.0	30.0	72	22.1	1	4	248	0.00	29.746 
06:00	30.0	30.0	30.0	72	22.1	1	4	248	0.00	29.743 
06:05	30.0	30.0	30.0	72	22.1	0	4	248	0.00	29.743 
06:10	30.0	30.0	30.0	73	22.4	1	6	248	0.00	29.743 
06:15	30.0	30.0	30.0	73	22.4	1	3	248	0.00	29.737 
06:20	30.0	30.0	30.0	73	22.4	1	4	248	0.00	29.737 
06:25	30.0	30.0	30.0	73	22.4	1	4	248	0.00	29.737 
06:30	30.0	30.0	30.0	73	22.4	1	5	248	0.00	29.736 
06:35	30.0	30.0	30.0	73	22.4	1	4	248	0.00	29.736 
06:40	29.8	29.8	29.8	73	22.2	0	2	248	0.00	29.736 
06:45	29.8	29.8	29.8	73	22.2	1	4	248	0.00	29.740 
06:50	29.7	29.7	29.7	73	22.1	0	3	248	0.00	29.740 
06:55	29.8	29.8	29.8	73	22.2	1	6	248	0.00	29.740 
07:00	30.0	30.0	30.0	73	22.4	0	3	248	0.00	29.740 
07:05	30.0	30.0	30.0	73	22.4	1	4	248	0.00	29.740 
07:10	29.8	29.8	29.8	73	22.2	0	3	248	0.00	29.740 
07:15	30.0	30.0	30.0	73	22.4	1	3	248	0.00	29.733 
07:20	30.0	30.0	30.0	73	22.4	0	4	248	0.00	29.733 
07:25	29.8	29.8	29.8	74	22.5	0	3	248	0.00	29.733 
07:30	29.8	29.8	29.8	74	22.5	0	3	248	0.00	29.729 
07:35	29.8	29.8	29.8	74	22.5	1	5	270	0.00	29.729 
07:40	30.0	30.0	30.0	74	22.7	1	4	248	0.00	29.729 
07:45	29.8	29.8	29.8	74	22.5	0	2	248	0.00	29.720 
07:50	30.0	30.0	30.0	74	22.7	1	4	270	0.00	29.720 
07:55	30.1	30.1	30.1	74	22.8	0	3	270	0.00	29.720 
08:00	30.0	30.0	30.0	74	22.7	1	4	270	0.00	29.712 
08:05	30.1	30.1	30.1	74	22.8	1	4	248	0.00	29.712 
08:10	30.1	30.1	30.1	74	22.8	1	5	248	0.00	29.712 
08:15	30.3	30.3	30.3	74	23.0	1	4	248	0.00	29.701 
08:20	30.3	30.3	30.3	74	23.0	1	4	248	0.00	29.701 
08:25	30.3	30.3	30.3	74	23.0	1	5	248	0.00	29.701 
08:30	30.4	30.4	30.4	74	23.1	1	3	248	0.00	29.690 
08:35	30.6	30.6	30.6	74	23.3	1	4	248	0.00	29.690 
08:40	30.7	30.7	30.7	74	23.4	1	7	248	0.00	29.690 
08:45	31.0	31.0	31.0	73	23.4	1	4	248	0.00	29.686 
08:50	31.2	31.2	31.2	73	23.6	1	5	248	0.00	29.686 
08:55	31.3	31.3	31.3	73	23.7	2	7	248	0.00	29.686 
09:00	31.6	31.6	31.6	73	24.0	2	5	248	0.00	29.683 
09:05	31.8	31.8	31.8	72	23.8	2	4	248	0.00	29.683 
09:10	31.9	31.9	31.9	72	23.9	1	5	248	0.00	29.683 
09:15	32.1	32.1	32.1	72	24.1	2	7	248	0.00	29.681 
09:20	32.2	32.2	32.2	72	24.2	2	7	248	0.00	29.681 
09:25	32.5	32.5	32.5	72	24.5	1	5	248	0.00	29.681 
09:30	32.7	32.7	32.7	71	24.4	1	6	248	0.00	29.672 
09:35	32.9	32.9	32.9	71	24.5	1	6	225	0.00	29.672 
09:40	33.2	33.2	33.2	71	24.8	1	5	248	0.00	29.672 
09:45	33.5	33.5	33.5	70	24.8	2	5	248	0.00	29.667 
09:50	33.8	33.8	33.8	70	25.1	2	5	248	0.00	29.667 
09:55	34.1	34.1	34.1	69	25.0	2	6	248	0.00	29.667 
10:00	34.3	34.3	34.3	69	25.2	1	6	248	0.00	29.664 
10:05	34.4	34.4	34.4	69	25.3	1	6	248	0.00	29.664 
10:10	34.6	34.6	34.6	69	25.5	2	7	248	0.00	29.664 
10:15	34.9	34.9	34.9	69	25.8	3	7	248	0.00	29.655 
10:20	35.0	35.0	35.0	69	25.9	1	7	270	0.00	29.655 
10:25	35.3	35.3	35.3	68	25.8	2	6	270	0.00	29.655 
10:30	35.6	35.6	35.6	68	26.1	2	4	248	0.00	29.649 
10:35	35.9	35.9	35.9	67	26.0	2	10	248	0.00	29.649 
10:40	36.0	36.0	36.0	68	26.5	2	6	248	0.00	29.649 
10:45	36.2	36.2	36.2	67	26.3	3	9	248	0.00	29.646 
10:50	36.3	36.3	36.3	67	26.4	2	8	248	0.00	29.646 
10:55	36.6	36.6	36.6	67	26.7	2	7	248	0.00	29.646 
11:00	36.9	36.9	36.9	67	27.0	2	7	248	0.00	29.640 
11:05	37.2	37.2	37.2	66	26.9	1	9	248	0.00	29.640 
11:10	37.3	37.3	37.3	66	27.0	2	5	248	0.00	29.640 
11:15	37.8	37.8	37.8	66	27.5	1	6	248	0.00	29.632 
11:20	38.0	38.0	38.0	65	27.3	1	4	248	0.00	29.632 
11:25	38.3	38.3	38.3	65	27.6	2	11	248	0.00	29.632 
11:30	38.5	38.5	38.5	65	27.8	2	6	248	0.00	29.627 
11:35	38.9	38.9	38.9	64	27.8	2	6	248	0.00	29.627 
11:40	38.9	38.9	38.9	64	27.8	3	7	248	0.00	29.627 
11:45	39.2	39.2	39.2	64	28.1	2	7	248	0.00	29.623 
11:50	39.1	39.1	39.1	64	28.0	3	9	248	0.00	29.623 
11:55	39.1	39.1	39.1	64	28.0	3	7	248	0.00	29.623 
12:00	39.3	39.3	39.3	64	28.2	2	9	248	0.00	29.613 
12:05	39.6	39.6	39.6	63	28.1	2	7	248	0.00	29.613 
12:10	40.1	40.1	40.1	63	28.5	2	7	248	0.00	29.613 
12:15	40.2	40.2	40.2	62	28.2	2	7	248	0.00	29.616 
12:20	40.1	40.1	40.1	63	28.5	2	5	248	0.00	29.616 
12:25	39.8	39.8	39.8	63	28.2	2	6	248	0.00	29.616 
12:30	39.8	39.8	39.8	64	28.6	2	6	248	0.00	29.611 
12:35	39.9	39.9	39.9	64	28.7	2	5	248	0.00	29.611 
12:40	39.9	39.9	39.9	64	28.7	3	7	292	0.00	29.611 
12:45	39.8	39.8	39.8	64	28.6	3	7	248	0.00	29.609 
12:50	39.9	39.9	39.9	65	29.1	2	5	270	0.00	29.609 
12:55	40.2	40.2	40.2	64	29.0	2	6	248	0.00	29.609 
13:00	40.1	40.1	40.1	64	28.9	2	6	248	0.00	29.605 
13:05	40.1	40.1	40.1	65	29.3	3	6	248	0.00	29.605 
13:10	39.9	39.9	39.9	65	29.1	3	7	270	0.00	29.605 
13:15	40.1	40.1	40.1	65	29.3	2	5	270	0.00	29.600 
13:20	40.1	40.1	40.1	65	29.3	3	7	248	0.00	29.600 
13:25	40.1	40.1	40.1	65	29.3	2	10	248	0.00	29.600 
13:30	40.2	40.2	40.2	65	29.4	1	4	248	0.00	29.595 
13:35	40.2	40.2	40.2	65	29.4	3	6	248	0.00	29.595 
13:40	40.1	40.1	40.1	66	29.7	2	7	248	0.00	29.595 
13:45	40.1	40.1	40.1	65	29.3	2	7	248	0.00	29.593 
13:50	39.9	39.9	39.9	66	29.5	2	6	248	0.00	29.593 
13:55	39.9	39.9	39.9	66	29.5	2	5	248	0.00	29.593 
14:00	40.1	40.1	40.1	66	29.7	1	3	248	0.00	29.594 
14:05	40.1	40.1	40.1	66	29.7	2	5	248	0.00	29.594 
14:10	40.1	40.1	40.1	66	29.7	2	5	270	0.00	29.594 
14:15	40.1	40.1	40.1	67	30.0	2	7	248	0.00	29.595 
14:20	39.9	39.9	39.9	67	29.8	3	5	270	0.00	29.595 
14:25	39.9	39.9	39.9	67	29.8	3	9	270	0.00	29.595 
14:30	39.9	39.9	39.9	68	30.2	2	7	270	0.00	29.597 
14:35	39.8	39.8	39.8	68	30.1	3	6	248	0.00	29.597 
14:40	39.8	39.8	39.8	68	30.1	2	5	248	0.00	29.597 
14:45	39.8	39.8	39.8	68	30.1	2	6	248	0.00	29.594 
14:50	39.9	39.9	39.9	68	30.2	2	4	270	0.00	29.594 
14:55	39.9	39.9	39.9	69	30.6	2	7	248	0.00	29.594 
15:00	39.9	37.2	39.9	68	30.2	4	9	270	0.00	29.596 
15:05	39.9	39.9	39.9	69	30.6	3	6	248	0.00	29.596 
15:10	39.9	39.9	39.9	69	30.6	2	6	248	0.00	29.596 
15:15	39.9	39.9	39.9	69	30.6	2	5	248	0.00	29.597 
15:20	39.9	39.9	39.9	69	30.6	1	4	270	0.00	29.597 
15:25	39.9	39.9	39.9	69	30.6	2	4	270	0.00	29.597 
15:30	39.9	39.9	39.9	69	30.6	1	6	292	0.00	29.603 
15:35	39.9	39.9	39.9	70	30.9	0	2	292	0.00	29.603 
15:40	39.9	39.9	39.9	70	30.9	1	5	292	0.00	29.603 
15:45	39.8	39.8	39.8	70	30.8	2	6	248	0.00	29.605 
15:50	39.8	39.8	39.8	70	30.8	1	4	248	0.00	29.605 
15:55	39.8	39.8	39.8	70	30.8	1	6	292	0.00	29.605 
16:00	39.9	39.9	39.9	70	30.9	1	6	248	0.00	29.608 
16:05	39.8	39.8	39.8	70	30.8	2	6	248	0.00	29.608 
16:10	39.8	39.8	39.8	70	30.8	2	5	248	0.00	29.608 
16:15	39.6	39.6	39.6	70	30.6	1	4	248	0.00	29.608 
16:20	39.6	39.6	39.6	70	30.6	1	3	248	0.00	29.608 
16:25	39.6	39.6	39.6	70	30.6	1	4	248	0.00	29.608 
16:30	39.5	39.5	39.5	71	30.9	1	3	248	0.00	29.611 
16:35	39.5	39.5	39.5	71	30.9	1	3	248	0.00	29.611 
16:40	39.3	39.3	39.3	71	30.7	2	5	292	0.00	29.611 
16:45	39.2	39.2	39.2	71	30.6	2	4	248	0.00	29.622 
16:50	39.2	39.2	39.2	72	30.9	2	5	270	0.00	29.622 
16:55	39.1	39.1	39.1	73	31.2	1	5	270	0.00	29.622 
17:00	38.8	38.8	38.8	73	30.9	1	4	270	0.00	29.629 
17:05	38.6	38.6	38.6	73	30.7	2	6	270	0.00	29.629 
17:10	38.5	38.5	38.5	74	30.9	2	4	270	0.00	29.629 
17:15	38.3	38.3	38.3	74	30.8	2	5	270	0.00	29.633 
17:20	38.2	38.2	38.2	75	31.0	2	5	270	0.00	29.633 
17:25	37.9	37.9	37.9	76	31.0	2	5	270	0.00	29.633 
17:30	37.8	37.8	37.8	77	31.2	1	3	270	0.00	29.638 
17:35	37.6	37.6	37.6	77	31.1	2	4	270	0.00	29.638 
17:40	37.3	37.3	37.3	78	31.1	1	6	270	0.00	29.638 
17:45	37.2	37.2	37.2	79	31.3	1	4	270	0.00	29.643 
17:50	37.0	37.0	37.0	80	31.4	1	3	270	0.00	29.643 
17:55	36.9	36.9	36.9	81	31.6	0	2	270	0.00	29.643 
18:00	36.8	36.8	36.8	81	31.5	1	3	270	0.00	29.649 
18:05	36.6	36.6	36.6	82	31.6	1	2	270	0.00	29.649 
18:10	36.5	36.5	36.5	83	31.8	1	4	270	0.00	29.649 
18:15	36.3	36.3	36.3	84	31.9	2	3	270	0.00	29.657 
18:20	36.2	36.2	36.2	84	31.8	1	2	270	0.00	29.657 
18:25	36.0	36.0	36.0	84	31.6	1	4	270	0.00	29.657 
18:30	35.9	35.9	35.9	85	31.8	0	2	270	0.00	29.662 
18:35	35.8	35.8	35.8	86	32.0	1	3	270	0.00	29.662 
18:40	35.5	35.5	35.5	86	31.7	1	3	270	0.01	29.662 
18:45	35.3	35.3	35.3	87	31.8	1	3	270	0.00	29.671 
18:50	35.2	35.2	35.2	87	31.7	1	3	270	0.00	29.671 
18:55	35.0	35.0	35.0	88	31.8	1	3	270	0.00	29.671 
19:00	34.9	34.9	34.9	88	31.7	1	3	270	0.00	29.675 
19:05	34.7	34.7	34.7	88	31.5	0	2	270	0.00	29.675 
19:10	34.7	34.7	34.7	89	31.8	0	2	270	0.00	29.675 
19:15	34.6	34.6	34.6	89	31.7	0	2	270	0.00	29.676 
19:20	34.6	34.6	34.6	89	31.7	1	3	270	0.00	29.676 
19:25	34.6	34.6	34.6	89	31.7	1	3	270	0.00	29.676 
19:30	34.6	34.6	34.6	90	32.0	0	2	270	0.01	29.680 
19:35	34.4	34.4	34.4	90	31.8	0	2	270	0.00	29.680 
19:40	34.4	34.4	34.4	90	31.8	1	2	270	0.00	29.680 
19:45	34.3	34.3	34.3	90	31.7	0	2	270	0.00	29.688 
19:50	34.3	34.3	34.3	90	31.7	1	2	270	0.00	29.688 
19:55	34.1	34.1	34.1	90	31.5	0	2	270	0.00	29.688 
20:00	34.1	34.1	34.1	90	31.5	1	3	270	0.00	29.695 
20:05	34.0	34.0	34.0	91	31.7	1	6	270	0.00	29.695 
20:10	33.8	33.8	33.8	91	31.5	1	3	270	0.00	29.695 
20:15	33.7	33.7	33.7	91	31.4	1	4	315	0.00	29.697 
20:20	33.4	33.4	33.4	90	30.8	1	5	292	0.00	29.697 
20:25	33.1	33.1	33.1	89	30.2	2	6	338	0.00	29.697 
20:30	32.9	32.9	32.9	89	30.0	1	4	338	0.00	29.701 
20:35	32.8	32.8	32.8	88	29.6	1	6	338	0.00	29.701 
20:40	32.7	32.7	32.7	87	29.3	2	4	292	0.00	29.701 
20:45	32.7	32.7	32.7	87	29.3	1	4	315	0.00	29.707 
20:50	32.4	32.4	32.4	87	29.0	2	6	292	0.00	29.707 
20:55	32.4	32.4	32.4	88	29.3	2	5	0	0.00	29.707 
21:00	32.2	32.2	32.2	88	29.1	1	3	315	0.00	29.707 
21:05	32.2	32.2	32.2	88	29.1	1	3	292	0.00	29.707 
21:10	32.2	32.2	32.2	88	29.1	1	4	292	0.00	29.707 
21:15	32.2	32.2	32.2	88	29.1	1	4	292	0.00	29.709 
21:20	32.2	32.2	32.2	88	29.1	1	3	292	0.00	29.709 
21:25	32.2	32.2	32.2	88	29.1	0	2	292	0.00	29.709 
21:30	32.2	32.2	32.2	87	28.8	1	3	292	0.00	29.717 
21:35	32.2	32.2	32.2	87	28.8	1	4	270	0.00	29.717 
21:40	32.2	32.2	32.2	86	28.5	2	4	270	0.00	29.717 
21:45	32.2	32.2	32.2	85	28.2	1	3	270	0.00	29.718 
21:50	32.2	32.2	32.2	85	28.2	1	3	270	0.00	29.718 
21:55	32.2	32.2	32.2	85	28.2	1	4	270	0.00	29.718 
22:00	32.2	32.2	32.2	84	27.9	0	2	270	0.00	29.719 
22:05	32.1	32.1	32.1	84	27.8	1	5	270	0.00	29.719 
22:10	32.1	32.1	32.1	84	27.8	1	4	315	0.00	29.719 
22:15	32.1	32.1	32.1	84	27.8	1	4	315	0.00	29.718 
22:20	31.9	31.9	31.9	84	27.6	1	2	292	0.00	29.718 
22:25	31.8	31.8	31.8	84	27.5	1	3	292	0.00	29.718 
22:30	31.6	31.6	31.6	83	27.0	1	3	292	0.00	29.719 
22:35	31.5	31.5	31.5	82	26.7	1	3	292	0.00	29.719 
22:40	31.5	31.5	31.5	82	26.7	1	2	292	0.00	29.719 
22:45	31.5	31.5	31.5	81	26.4	1	4	292	0.00	29.721 
22:50	31.3	31.3	31.3	81	26.2	0	2	292	0.00	29.721 
22:55	31.2	31.2	31.2	81	26.1	0	3	292	0.00	29.721 
23:00	31.2	31.2	31.2	81	26.1	1	4	248	0.00	29.720 
23:05	31.2	31.2	31.2	80	25.8	1	3	248	0.00	29.720 
23:10	31.0	31.0	31.0	81	25.9	1	3	248	0.00	29.720 
23:15	31.0	31.0	31.0	81	25.9	0	2	248	0.00	29.723 
23:20	31.0	31.0	31.0	81	25.9	1	3	248	0.00	29.723 
23:25	31.0	31.0	31.0	81	25.9	1	4	270	0.00	29.723 
23:30	31.0	31.0	31.0	80	25.6	1	2	270	0.00	29.723 
23:35	31.2	31.2	31.2	80	25.8	0	2	270	0.00	29.723 
23:40	31.2	31.2	31.2	80	25.8	1	4	270	0.00	29.723 
23:45	31.2	31.2	31.2	80	25.8	1	3	270	0.00	29.727 
23:50	31.2	31.2	31.2	79	25.5	0	3	270	0.00	29.727 
23:55	31.2	31.2	31.2	79	25.5	1	3	270	0.00	29.727 

CoCoRaHS
IN-AL-39
A2 Web Hosting
Creative Commons License
GoDaddy
search engine by freefind advanced

loaded 2018-11-17 05:38:31 • last modified 2010-11-18 10:43:29
Privacy PolicyDisclaimer
• wx.awcolley.com is powered by PmWiki v.2002016 •
• all content (unless otherwise noted) © 2018 A W Colley